Time;durP1;ratioP1;P1;durP2;ratioP2;P2;SDS_P1;SDS_P2;PMS_P1;PMS_P2;Temp;Humidity;BMP_temperature;BMP_pressure;BME280_temperature;BME280_humidity;BME280_pressure;Samples;Min_cycle;Max_cycle;Signal;HPM_P1;HPM_P2
2021/11/29 00:00:10;;;;;;;1.27;0.40;;;;;;;;;;4994193;28;20065;-74
2021/11/29 00:02:37;;;;;;;1.30;0.35;;;;;;;;;;5010246;28;20058;-74
2021/11/29 00:05:03;;;;;;;0.82;0.50;;;;;;;;;;4988006;28;20124;-74
2021/11/29 00:07:30;;;;;;;1.48;0.35;;;;;;;;;;4977429;28;20569;-73
2021/11/29 00:09:56;;;;;;;0.70;0.50;;;;;;;;;;5008531;28;20119;-74
2021/11/29 00:12:23;;;;;;;1.30;0.40;;;;;;;;;;4987662;28;20062;-74
2021/11/29 00:14:49;;;;;;;0.70;0.50;;;;;;;;;;4990279;28;20163;-74
2021/11/29 00:17:16;;;;;;;0.47;0.20;;;;;;;;;;5002944;28;20124;-73
2021/11/29 00:19:42;;;;;;;0.88;0.47;;;;;;;;;;5002046;28;20470;-74
2021/11/29 00:22:09;;;;;;;0.50;0.35;;;;;;;;;;4981612;28;20053;-73
2021/11/29 00:24:35;;;;;;;0.63;0.30;;;;;;;;;;4983674;28;20073;-74
2021/11/29 00:27:02;;;;;;;1.00;0.50;;;;;;;;;;4992158;28;20073;-73
2021/11/29 00:29:28;;;;;;;0.55;0.40;;;;;;;;;;4985760;28;20073;-73
2021/11/29 00:31:54;;;;;;;0.93;0.35;;;;;;;;;;4988534;28;20061;-73
2021/11/29 00:34:21;;;;;;;0.90;0.40;;;;;;;;;;4989223;28;20057;-73
2021/11/29 00:36:48;;;;;;;1.20;0.45;;;;;;;;;;4988513;28;20054;-73
2021/11/29 00:39:16;;;;;;;0.60;0.40;;;;;;;;;;4995963;28;20097;-73
2021/11/29 00:41:42;;;;;;;1.27;0.40;;;;;;;;;;4985357;28;20061;-73
2021/11/29 00:44:09;;;;;;;2.13;0.40;;;;;;;;;;4986896;28;20034;-73
2021/11/29 00:46:35;;;;;;;1.83;0.35;;;;;;;;;;4990395;28;20061;-73
2021/11/29 00:49:01;;;;;;;0.28;0.28;;;;;;;;;;5002403;28;20030;-74
2021/11/29 00:51:28;;;;;;;1.05;0.50;;;;;;;;;;5004757;28;20057;-73
2021/11/29 00:53:54;;;;;;;0.60;0.40;;;;;;;;;;4978161;28;20683;-74
2021/11/29 00:56:21;;;;;;;2.05;0.50;;;;;;;;;;5010556;28;20038;-75
2021/11/29 00:58:48;;;;;;;0.38;0.25;;;;;;;;;;5015054;28;20069;-75
2021/11/29 01:01:15;;;;;;;0.55;0.40;;;;;;;;;;4972845;28;20074;-75
2021/11/29 01:03:42;;;;;;;0.50;0.30;;;;;;;;;;4979489;28;20078;-74
2021/11/29 01:06:08;;;;;;;1.38;0.50;;;;;;;;;;4969338;28;20066;-74
2021/11/29 01:08:35;;;;;;;1.77;0.30;;;;;;;;;;4972287;28;20050;-74
2021/11/29 01:11:02;;;;;;;0.25;0.25;;;;;;;;;;4975572;28;20035;-75
2021/11/29 01:13:28;;;;;;;1.08;0.50;;;;;;;;;;4966512;28;20418;-74
2021/11/29 01:15:55;;;;;;;1.27;0.50;;;;;;;;;;4973300;28;20077;-75
2021/11/29 01:18:21;;;;;;;0.73;0.30;;;;;;;;;;4968864;28;20078;-75
2021/11/29 01:20:48;;;;;;;1.00;0.57;;;;;;;;;;4969602;28;20133;-75
2021/11/29 01:23:15;;;;;;;0.85;0.43;;;;;;;;;;4964670;28;20065;-74
2021/11/29 01:25:44;;;;;;;0.75;0.40;;;;;;;;;;4966766;28;20070;-74
2021/11/29 01:28:11;;;;;;;1.08;0.52;;;;;;;;;;4962892;28;20054;-74
2021/11/29 01:30:37;;;;;;;1.05;0.32;;;;;;;;;;4969960;28;20616;-74
2021/11/29 01:33:05;;;;;;;0.63;0.40;;;;;;;;;;4967217;28;20054;-73
2021/11/29 01:35:32;;;;;;;0.80;0.40;;;;;;;;;;4965353;28;20027;-75
2021/11/29 01:37:58;;;;;;;0.63;0.50;;;;;;;;;;4969105;28;20470;-74
2021/11/29 01:40:26;;;;;;;0.85;0.50;;;;;;;;;;4964572;28;20121;-74
2021/11/29 01:42:55;;;;;;;0.35;0.32;;;;;;;;;;4968671;28;20053;-74
2021/11/29 01:45:21;;;;;;;0.50;0.40;;;;;;;;;;4958903;28;20071;-73
2021/11/29 01:47:47;;;;;;;1.65;0.55;;;;;;;;;;4965786;28;20070;-73
2021/11/29 01:50:14;;;;;;;0.65;0.40;;;;;;;;;;4970474;28;20113;-72
2021/11/29 01:52:40;;;;;;;0.57;0.28;;;;;;;;;;4973815;28;20054;-72
2021/11/29 01:55:08;;;;;;;0.80;0.40;;;;;;;;;;4967959;28;20066;-73
2021/11/29 01:57:34;;;;;;;0.82;0.38;;;;;;;;;;4965272;28;20070;-73
2021/11/29 02:00:01;;;;;;;0.52;0.30;;;;;;;;;;4991881;28;20478;-74
2021/11/29 02:02:27;;;;;;;0.70;0.47;;;;;;;;;;4992132;28;20513;-73
2021/11/29 02:04:58;;;;;;;0.47;0.38;;;;;;;;;;5008865;28;20693;-73
2021/11/29 02:07:25;;;;;;;0.65;0.40;;;;;;;;;;4999741;28;20042;-74
2021/11/29 02:09:51;;;;;;;0.73;0.28;;;;;;;;;;4989879;28;20067;-73
2021/11/29 02:12:19;;;;;;;1.25;0.57;;;;;;;;;;4989598;28;20049;-73
2021/11/29 02:14:47;;;;;;;1.27;0.50;;;;;;;;;;4995605;28;22356;-73
2021/11/29 02:17:14;;;;;;;1.17;0.40;;;;;;;;;;5004605;28;20103;-74
2021/11/29 02:19:42;;;;;;;0.70;0.40;;;;;;;;;;5007703;28;20062;-73
2021/11/29 02:22:09;;;;;;;1.27;0.47;;;;;;;;;;4992291;28;20050;-73
2021/11/29 02:24:36;;;;;;;0.55;0.40;;;;;;;;;;4999344;28;20062;-73
2021/11/29 02:27:02;;;;;;;0.60;0.38;;;;;;;;;;4988788;28;20047;-74
2021/11/29 02:29:29;;;;;;;1.65;0.30;;;;;;;;;;4990874;28;20054;-74
2021/11/29 02:31:55;;;;;;;0.73;0.40;;;;;;;;;;5002556;28;20073;-73
2021/11/29 02:34:23;;;;;;;0.93;0.50;;;;;;;;;;4987303;28;20494;-74
2021/11/29 02:36:50;;;;;;;1.33;0.40;;;;;;;;;;4990640;28;20128;-73
2021/11/29 02:39:17;;;;;;;0.65;0.40;;;;;;;;;;4991068;28;20053;-73
2021/11/29 02:41:44;;;;;;;0.70;0.40;;;;;;;;;;5009718;28;20044;-73
2021/11/29 02:44:11;;;;;;;0.73;0.50;;;;;;;;;;5020026;28;20057;-74
2021/11/29 02:46:38;;;;;;;1.10;0.40;;;;;;;;;;5008465;28;20115;-74
2021/11/29 02:49:05;;;;;;;0.65;0.30;;;;;;;;;;5011347;28;20123;-73
2021/11/29 02:51:33;;;;;;;0.73;0.32;;;;;;;;;;5003170;28;20159;-73
2021/11/29 02:54:03;;;;;;;0.57;0.30;;;;;;;;;;4997561;28;20053;-73
2021/11/29 02:56:29;;;;;;;0.82;0.35;;;;;;;;;;4993215;28;20525;-74
2021/11/29 02:58:56;;;;;;;1.23;0.38;;;;;;;;;;4990307;28;20631;-74
2021/11/29 03:01:22;;;;;;;0.85;0.43;;;;;;;;;;4983787;28;20074;-74
2021/11/29 03:03:49;;;;;;;0.70;0.50;;;;;;;;;;4988983;28;20054;-74
2021/11/29 03:06:16;;;;;;;0.73;0.40;;;;;;;;;;4990021;28;20128;-73
2021/11/29 03:08:43;;;;;;;0.65;0.47;;;;;;;;;;4987804;28;20070;-73
2021/11/29 03:11:10;;;;;;;0.85;0.43;;;;;;;;;;4983891;28;20495;-73
2021/11/29 03:13:36;;;;;;;0.30;0.30;;;;;;;;;;4986336;28;20062;-74
2021/11/29 03:16:02;;;;;;;0.98;0.50;;;;;;;;;;4991170;28;20454;-74
2021/11/29 03:18:30;;;;;;;1.27;0.50;;;;;;;;;;4988610;28;20062;-74
2021/11/29 03:20:56;;;;;;;0.85;0.32;;;;;;;;;;4990562;28;20062;-74
2021/11/29 03:23:23;;;;;;;0.60;0.40;;;;;;;;;;4988981;28;20061;-74
2021/11/29 03:25:49;;;;;;;0.60;0.40;;;;;;;;;;4988022;28;20058;-74
2021/11/29 03:28:15;;;;;;;0.95;0.40;;;;;;;;;;4988799;28;20435;-74
2021/11/29 03:30:42;;;;;;;0.70;0.40;;;;;;;;;;4993172;28;20085;-74
2021/11/29 03:33:08;;;;;;;0.80;0.40;;;;;;;;;;4988624;28;20073;-74
2021/11/29 03:35:36;;;;;;;1.33;0.60;;;;;;;;;;4983330;28;20046;-74
2021/11/29 03:38:03;;;;;;;2.25;0.77;;;;;;;;;;4985729;28;20062;-74
2021/11/29 03:40:29;;;;;;;0.30;0.28;;;;;;;;;;4992941;28;20454;-74
2021/11/29 03:42:56;;;;;;;0.75;0.50;;;;;;;;;;4988804;28;20066;-74
2021/11/29 03:45:23;;;;;;;1.17;0.50;;;;;;;;;;4986511;28;20033;-74
2021/11/29 03:47:49;;;;;;;0.73;0.40;;;;;;;;;;4997753;28;20458;-74
2021/11/29 03:50:15;;;;;;;0.90;0.40;;;;;;;;;;5008153;28;20064;-74
2021/11/29 03:52:42;;;;;;;0.50;0.40;;;;;;;;;;5004982;28;20541;-73
2021/11/29 03:55:08;;;;;;;1.98;0.50;;;;;;;;;;5006566;28;20093;-74
2021/11/29 03:57:35;;;;;;;0.80;0.40;;;;;;;;;;5006963;28;20061;-74
2021/11/29 04:00:01;;;;;;;0.80;0.50;;;;;;;;;;4979361;28;20081;-74
2021/11/29 04:02:28;;;;;;;0.88;0.50;;;;;;;;;;4969615;28;20470;-75
2021/11/29 04:04:54;;;;;;;0.30;0.30;;;;;;;;;;4969248;28;20089;-74
2021/11/29 04:07:21;;;;;;;1.45;0.50;;;;;;;;;;4967902;28;20502;-75
2021/11/29 04:09:47;;;;;;;0.60;0.50;;;;;;;;;;4967109;28;20070;-74
2021/11/29 04:12:14;;;;;;;2.75;0.40;;;;;;;;;;4967883;28;20047;-73
2021/11/29 04:14:40;;;;;;;1.15;0.57;;;;;;;;;;4966205;28;20470;-74
2021/11/29 04:17:06;;;;;;;1.60;0.68;;;;;;;;;;4968469;28;20085;-77
2021/11/29 04:19:41;;;;;;;0.50;0.40;;;;;;;;;;4966545;28;20468;-74
2021/11/29 04:22:08;;;;;;;1.98;0.60;;;;;;;;;;4968503;28;20065;-74
2021/11/29 04:24:36;;;;;;;0.77;0.50;;;;;;;;;;4964122;28;20082;-74
2021/11/29 04:27:05;;;;;;;0.63;0.40;;;;;;;;;;4966753;28;20055;-75
2021/11/29 04:29:34;;;;;;;0.50;0.47;;;;;;;;;;4967269;28;20471;-75
2021/11/29 04:32:00;;;;;;;1.58;0.60;;;;;;;;;;4963787;28;20066;-74
2021/11/29 04:34:26;;;;;;;1.25;0.60;;;;;;;;;;4961784;28;20627;-75
2021/11/29 04:36:53;;;;;;;0.95;0.50;;;;;;;;;;4984615;28;20062;-74
2021/11/29 04:39:22;;;;;;;1.13;0.70;;;;;;;;;;4983767;28;20062;-73
2021/11/29 04:41:48;;;;;;;0.93;0.52;;;;;;;;;;4964626;28;21379;-74
2021/11/29 04:44:15;;;;;;;1.05;0.70;;;;;;;;;;4962552;28;20067;-73
2021/11/29 04:46:41;;;;;;;1.10;0.75;;;;;;;;;;4964127;28;20060;-73
2021/11/29 04:49:08;;;;;;;2.65;1.00;;;;;;;;;;4978661;28;20049;-73
2021/11/29 04:51:34;;;;;;;1.27;0.80;;;;;;;;;;4962747;28;20063;-74
2021/11/29 04:54:02;;;;;;;2.00;1.83;;;;;;;;;;4962623;28;20687;-74
2021/11/29 04:56:29;;;;;;;1.15;0.80;;;;;;;;;;4963397;28;20104;-74
2021/11/29 04:58:56;;;;;;;2.10;0.82;;;;;;;;;;4968161;28;20512;-74
2021/11/29 05:01:22;;;;;;;1.52;0.93;;;;;;;;;;4998181;28;20528;-75
2021/11/29 05:03:49;;;;;;;1.85;1.00;;;;;;;;;;5003502;28;20072;-74
2021/11/29 05:06:16;;;;;;;2.67;0.93;;;;;;;;;;5006170;28;20482;-74
2021/11/29 05:08:42;;;;;;;3.67;1.50;;;;;;;;;;5003907;28;20103;-74
2021/11/29 05:11:09;;;;;;;2.55;1.30;;;;;;;;;;5004473;28;20549;-74
2021/11/29 05:13:35;;;;;;;5.10;1.40;;;;;;;;;;4993017;28;20435;-75
2021/11/29 05:16:02;;;;;;;3.17;1.27;;;;;;;;;;4990243;28;20057;-75
2021/11/29 05:18:29;;;;;;;1.92;1.17;;;;;;;;;;4994055;28;20062;-75
2021/11/29 05:20:55;;;;;;;3.10;1.25;;;;;;;;;;4996483;28;20065;-74
2021/11/29 05:23:22;;;;;;;5.03;1.48;;;;;;;;;;5006546;28;20580;-75
2021/11/29 05:25:51;;;;;;;3.15;1.30;;;;;;;;;;5002227;28;20070;-73
2021/11/29 05:28:17;;;;;;;2.13;1.17;;;;;;;;;;4967098;28;20625;-74
2021/11/29 05:30:44;;;;;;;3.55;1.30;;;;;;;;;;5004737;28;20061;-74
2021/11/29 05:33:11;;;;;;;4.15;1.50;;;;;;;;;;5000645;28;20046;-74
2021/11/29 05:35:37;;;;;;;3.20;1.10;;;;;;;;;;5004068;28;20058;-73
2021/11/29 05:38:04;;;;;;;2.90;1.40;;;;;;;;;;5007558;28;20085;-73
2021/11/29 05:40:30;;;;;;;3.17;1.42;;;;;;;;;;4988174;28;20065;-73
2021/11/29 05:42:57;;;;;;;3.45;1.27;;;;;;;;;;4993449;28;20057;-73
2021/11/29 05:45:23;;;;;;;4.05;1.25;;;;;;;;;;4989336;28;20069;-73
2021/11/29 05:47:50;;;;;;;5.00;1.60;;;;;;;;;;4987928;28;20066;-73
2021/11/29 05:50:17;;;;;;;3.55;1.15;;;;;;;;;;5005422;28;21190;-73
2021/11/29 05:52:44;;;;;;;4.60;1.08;;;;;;;;;;4984060;28;20154;-73
2021/11/29 05:55:11;;;;;;;3.80;1.30;;;;;;;;;;4986974;28;20426;-74
2021/11/29 05:57:38;;;;;;;2.30;1.20;;;;;;;;;;4989078;28;20065;-73
2021/11/29 06:00:05;;;;;;;4.95;1.00;;;;;;;;;;4993424;28;20521;-73
2021/11/29 06:02:32;;;;;;;4.43;1.40;;;;;;;;;;4995886;28;20050;-73
2021/11/29 06:04:58;;;;;;;3.10;1.42;;;;;;;;;;4983938;28;20058;-73
2021/11/29 06:07:25;;;;;;;2.72;0.93;;;;;;;;;;4986312;28;20513;-73
2021/11/29 06:09:51;;;;;;;3.95;1.15;;;;;;;;;;4978853;28;20070;-74
2021/11/29 06:12:17;;;;;;;4.00;1.10;;;;;;;;;;4985810;28;20065;-73
2021/11/29 06:14:44;;;;;;;3.58;1.20;;;;;;;;;;4981788;28;20066;-73
2021/11/29 06:17:10;;;;;;;2.53;1.08;;;;;;;;;;4989446;28;20057;-72
2021/11/29 06:19:36;;;;;;;4.05;1.25;;;;;;;;;;4987430;28;20073;-73
2021/11/29 06:22:03;;;;;;;2.78;1.40;;;;;;;;;;4984528;28;20323;-73
2021/11/29 06:24:29;;;;;;;2.83;1.15;;;;;;;;;;4987768;28;20069;-73
2021/11/29 06:26:56;;;;;;;3.85;1.30;;;;;;;;;;4987073;28;20061;-73
2021/11/29 06:29:22;;;;;;;3.10;1.00;;;;;;;;;;5000161;28;20435;-73
2021/11/29 06:31:48;;;;;;;2.35;0.98;;;;;;;;;;4992458;28;20070;-74
2021/11/29 06:34:15;;;;;;;3.00;1.20;;;;;;;;;;4979314;28;20058;-73
2021/11/29 06:36:41;;;;;;;2.83;1.17;;;;;;;;;;4990249;28;20073;-73
2021/11/29 06:39:08;;;;;;;2.15;1.00;;;;;;;;;;4990177;28;20428;-74
2021/11/29 06:41:34;;;;;;;2.92;1.63;;;;;;;;;;4997686;28;20070;-73
2021/11/29 06:44:01;;;;;;;2.47;1.05;;;;;;;;;;4995967;28;20050;-73
2021/11/29 06:46:27;;;;;;;2.33;0.90;;;;;;;;;;4989137;28;20167;-74
2021/11/29 06:48:53;;;;;;;2.78;1.02;;;;;;;;;;4989823;28;20073;-73
2021/11/29 06:51:23;;;;;;;2.45;0.88;;;;;;;;;;4989964;28;20062;-74
2021/11/29 06:53:50;;;;;;;2.40;0.98;;;;;;;;;;4988490;28;22264;-74
2021/11/29 06:56:16;;;;;;;2.10;0.88;;;;;;;;;;4990607;28;20411;-73
2021/11/29 06:58:43;;;;;;;2.15;0.95;;;;;;;;;;4985969;28;20050;-73
2021/11/29 07:01:09;;;;;;;2.50;0.80;;;;;;;;;;5011558;28;20066;-74
2021/11/29 07:03:36;;;;;;;1.70;1.10;;;;;;;;;;5007245;28;20065;-73
2021/11/29 07:06:03;;;;;;;1.40;0.70;;;;;;;;;;5013646;28;20060;-74
2021/11/29 07:08:30;;;;;;;2.80;1.00;;;;;;;;;;5015697;28;20447;-74
2021/11/29 07:10:57;;;;;;;1.92;0.98;;;;;;;;;;5012172;28;20065;-74
2021/11/29 07:13:23;;;;;;;2.95;0.95;;;;;;;;;;5005819;28;20026;-73
2021/11/29 07:15:50;;;;;;;1.85;0.88;;;;;;;;;;5008742;28;20030;-74
2021/11/29 07:18:17;;;;;;;1.40;0.60;;;;;;;;;;4995372;28;20084;-73
2021/11/29 07:20:43;;;;;;;1.33;0.75;;;;;;;;;;5007609;28;20061;-73
2021/11/29 07:23:10;;;;;;;2.60;0.77;;;;;;;;;;5010075;28;20053;-74
2021/11/29 07:25:36;;;;;;;1.95;0.63;;;;;;;;;;5006669;28;20066;-74
2021/11/29 07:28:03;;;;;;;1.30;0.80;;;;;;;;;;4988786;28;20140;-74
2021/11/29 07:30:30;;;;;;;1.88;0.80;;;;;;;;;;5014934;28;20609;-73
2021/11/29 07:32:56;;;;;;;2.47;0.82;;;;;;;;;;5001972;28;20053;-74
2021/11/29 07:35:24;;;;;;;2.35;0.90;;;;;;;;;;5007636;28;20096;-74
2021/11/29 07:37:50;;;;;;;1.88;0.80;;;;;;;;;;5007211;28;20069;-74
2021/11/29 07:40:17;;;;;;;1.63;0.82;;;;;;;;;;5008346;28;20076;-74
2021/11/29 07:42:43;;;;;;;1.95;0.88;;;;;;;;;;5006763;28;20065;-74
2021/11/29 07:45:12;;;;;;;0.82;0.60;;;;;;;;;;5007585;28;20501;-74
2021/11/29 07:47:42;;;;;;;1.55;0.63;;;;;;;;;;5005634;28;20089;-74
2021/11/29 07:50:10;;;;;;;2.08;1.15;;;;;;;;;;5007361;28;20060;-74
2021/11/29 07:52:36;;;;;;;2.42;0.93;;;;;;;;;;5004189;28;20057;-74
2021/11/29 07:55:07;;;;;;;2.00;0.73;;;;;;;;;;5005602;28;20065;-74
2021/11/29 07:57:33;;;;;;;1.00;0.60;;;;;;;;;;4990687;28;20077;-74
2021/11/29 08:00:04;;;;;;;0.77;0.50;;;;;;;;;;5008072;28;20572;-74
2021/11/29 08:02:30;;;;;;;0.80;0.60;;;;;;;;;;5007664;28;20054;-74
2021/11/29 08:04:56;;;;;;;2.60;0.60;;;;;;;;;;4983859;28;20128;-74
2021/11/29 08:07:23;;;;;;;0.98;0.60;;;;;;;;;;4996689;28;20654;-75
2021/11/29 08:09:49;;;;;;;1.05;0.50;;;;;;;;;;5004537;28;20503;-74
2021/11/29 08:12:16;;;;;;;2.30;0.63;;;;;;;;;;5007807;28;20030;-75
2021/11/29 08:14:42;;;;;;;1.27;0.47;;;;;;;;;;5007746;28;20060;-75
2021/11/29 08:17:09;;;;;;;1.90;0.60;;;;;;;;;;4989600;28;20058;-75
2021/11/29 08:19:35;;;;;;;1.20;0.50;;;;;;;;;;4985127;28;20061;-75
2021/11/29 08:22:02;;;;;;;0.75;0.47;;;;;;;;;;5000124;28;20068;-75
2021/11/29 08:24:28;;;;;;;1.77;0.75;;;;;;;;;;5004911;28;20046;-75
2021/11/29 08:26:54;;;;;;;0.95;0.50;;;;;;;;;;5009232;28;20073;-75
2021/11/29 08:29:21;;;;;;;0.73;0.43;;;;;;;;;;5013353;28;20053;-75
2021/11/29 08:31:47;;;;;;;2.35;0.80;;;;;;;;;;5011046;28;20049;-75
2021/11/29 08:34:17;;;;;;;2.70;0.60;;;;;;;;;;5007839;28;20065;-75
2021/11/29 08:36:44;;;;;;;1.23;0.50;;;;;;;;;;5006714;28;20065;-75
2021/11/29 08:39:10;;;;;;;1.65;0.50;;;;;;;;;;5008024;28;20112;-75
2021/11/29 08:41:36;;;;;;;1.58;0.60;;;;;;;;;;5004726;28;20063;-75
2021/11/29 08:44:03;;;;;;;1.30;0.50;;;;;;;;;;5008191;28;20054;-75
2021/11/29 08:46:31;;;;;;;0.77;0.45;;;;;;;;;;5005871;28;20049;-74
2021/11/29 08:48:58;;;;;;;1.30;0.60;;;;;;;;;;5005512;28;20178;-74
2021/11/29 08:51:24;;;;;;;0.55;0.43;;;;;;;;;;5005793;28;20065;-74
2021/11/29 08:53:51;;;;;;;0.60;0.40;;;;;;;;;;5002337;28;20058;-74
2021/11/29 08:56:17;;;;;;;0.50;0.40;;;;;;;;;;5006010;28;20053;-74
2021/11/29 08:58:45;;;;;;;1.77;0.60;;;;;;;;;;5004059;28;20072;-74
2021/11/29 09:01:12;;;;;;;1.13;0.50;;;;;;;;;;5001142;28;20069;-74
2021/11/29 09:03:38;;;;;;;1.35;0.52;;;;;;;;;;5006880;28;20057;-74
2021/11/29 09:06:05;;;;;;;2.45;0.80;;;;;;;;;;5007295;28;20068;-75
2021/11/29 09:08:33;;;;;;;0.50;0.40;;;;;;;;;;5007696;28;20045;-74
2021/11/29 09:11:00;;;;;;;1.95;0.70;;;;;;;;;;5010492;28;20058;-75
2021/11/29 09:13:31;;;;;;;0.70;0.45;;;;;;;;;;5005623;28;20497;-74
2021/11/29 09:16:01;;;;;;;2.15;0.60;;;;;;;;;;4994889;28;20148;-74
2021/11/29 09:18:28;;;;;;;1.35;0.60;;;;;;;;;;5003255;28;20057;-75
2021/11/29 09:20:55;;;;;;;0.93;0.50;;;;;;;;;;5004497;28;20066;-74
2021/11/29 09:23:22;;;;;;;0.52;0.40;;;;;;;;;;4988360;28;20149;-75
2021/11/29 09:25:48;;;;;;;0.90;0.50;;;;;;;;;;5001663;28;20054;-74
2021/11/29 09:28:15;;;;;;;1.38;0.70;;;;;;;;;;5000046;28;20058;-75
2021/11/29 09:30:43;;;;;;;0.70;0.60;;;;;;;;;;4982151;28;20744;-75
2021/11/29 09:33:09;;;;;;;1.20;0.60;;;;;;;;;;4996724;28;20069;-74
2021/11/29 09:35:36;;;;;;;1.20;0.70;;;;;;;;;;5013888;28;20056;-74
2021/11/29 09:38:03;;;;;;;2.70;0.63;;;;;;;;;;5006255;28;20141;-75
2021/11/29 09:40:35;;;;;;;0.55;0.40;;;;;;;;;;5011976;28;20069;-74
2021/11/29 09:43:01;;;;;;;;;;;;;;;;;;4996915;28;20088;-73
2021/11/29 09:45:28;;;;;;;1.00;0.50;;;;;;;;;;5005744;28;19987;-74
2021/11/29 09:47:55;;;;;;;2.10;0.50;;;;;;;;;;5008852;28;20061;-75
2021/11/29 09:50:22;;;;;;;1.00;0.57;;;;;;;;;;4988011;28;20169;-75
2021/11/29 09:52:48;;;;;;;0.98;0.60;;;;;;;;;;5004866;28;20065;-74
2021/11/29 09:55:16;;;;;;;1.30;0.57;;;;;;;;;;5006677;28;20466;-74
2021/11/29 09:57:43;;;;;;;1.08;0.60;;;;;;;;;;5005253;28;20084;-73
2021/11/29 10:00:11;;;;;;;0.65;0.50;;;;;;;;;;5008391;28;20096;-75
2021/11/29 10:02:37;;;;;;;1.17;0.57;;;;;;;;;;5006255;28;21323;-74
2021/11/29 10:05:04;;;;;;;1.13;0.50;;;;;;;;;;5008585;28;20061;-75
2021/11/29 10:07:32;;;;;;;0.90;0.38;;;;;;;;;;5005542;28;20088;-74
2021/11/29 10:10:18;;;;;;;0.63;0.50;;;;;;;;;;5010086;28;20066;-74
2021/11/29 10:12:45;;;;;;;0.77;0.43;;;;;;;;;;5004849;28;20073;-74
2021/11/29 10:15:21;;;;;;;0.77;0.60;;;;;;;;;;5007717;28;20080;-74
2021/11/29 10:17:49;;;;;;;0.85;0.45;;;;;;;;;;5010750;28;21076;-74
2021/11/29 10:20:15;;;;;;;4.25;0.60;;;;;;;;;;5010009;28;20050;-74
2021/11/29 10:22:55;;;;;;;0.60;0.50;;;;;;;;;;5008834;28;20053;-74
2021/11/29 10:25:22;;;;;;;0.77;0.38;;;;;;;;;;5012155;28;20062;-75
2021/11/29 10:27:48;;;;;;;1.10;0.50;;;;;;;;;;5013392;28;20034;-75
2021/11/29 10:30:17;;;;;;;1.05;0.45;;;;;;;;;;5007936;28;20042;-75
2021/11/29 10:32:46;;;;;;;1.00;0.60;;;;;;;;;;5007923;28;20077;-75
2021/11/29 10:35:15;;;;;;;1.20;0.45;;;;;;;;;;5012352;28;20081;-74
2021/11/29 10:37:44;;;;;;;1.38;0.43;;;;;;;;;;4992461;28;20121;-75
2021/11/29 10:40:14;;;;;;;0.90;0.47;;;;;;;;;;5005500;28;20061;-74
2021/11/29 10:42:40;;;;;;;0.80;0.50;;;;;;;;;;5008713;28;20053;-74
2021/11/29 10:45:08;;;;;;;1.10;0.30;;;;;;;;;;5007388;28;20092;-72
2021/11/29 10:47:35;;;;;;;0.82;0.47;;;;;;;;;;5011337;28;20466;-74
2021/11/29 10:50:05;;;;;;;1.95;0.40;;;;;;;;;;5008611;28;20072;-74
2021/11/29 10:52:35;;;;;;;0.45;0.40;;;;;;;;;;5004821;28;20176;-74
2021/11/29 10:55:03;;;;;;;1.15;0.50;;;;;;;;;;5014156;28;20061;-74
2021/11/29 10:57:30;;;;;;;1.90;0.60;;;;;;;;;;5007471;28;20066;-74
2021/11/29 10:59:57;;;;;;;1.30;0.60;;;;;;;;;;5003686;28;20069;-74
2021/11/29 11:02:25;;;;;;;1.02;0.70;;;;;;;;;;5010348;28;20131;-75
2021/11/29 11:05:14;;;;;;;1.83;0.43;;;;;;;;;;5005619;28;20061;-73
2021/11/29 11:07:41;;;;;;;0.80;0.43;;;;;;;;;;5006707;28;20057;-74
2021/11/29 11:10:13;;;;;;;1.23;0.50;;;;;;;;;;4999746;28;20095;-74
2021/11/29 11:12:39;;;;;;;0.70;0.50;;;;;;;;;;5000999;28;20069;-74
2021/11/29 11:15:10;;;;;;;0.95;0.50;;;;;;;;;;5006458;28;20053;-73
2021/11/29 11:17:36;;;;;;;0.97;0.50;;;;;;;;;;5008187;28;20084;-73
2021/11/29 11:20:07;;;;;;;1.65;0.55;;;;;;;;;;5005266;28;20053;-75
2021/11/29 11:22:38;;;;;;;0.43;0.38;;;;;;;;;;5004799;28;20587;-74
2021/11/29 11:25:04;;;;;;;3.78;0.75;;;;;;;;;;5007214;28;20057;-74
2021/11/29 11:27:32;;;;;;;0.88;0.40;;;;;;;;;;5004427;28;20062;-74
2021/11/29 11:30:00;;;;;;;0.70;0.32;;;;;;;;;;5012848;28;20061;-73
2021/11/29 11:32:28;;;;;;;3.60;0.70;;;;;;;;;;5006401;28;20523;-73
2021/11/29 11:34:57;;;;;;;1.67;0.50;;;;;;;;;;4987353;28;20196;-73
2021/11/29 11:37:25;;;;;;;1.25;0.60;;;;;;;;;;5008619;28;20716;-73
2021/11/29 11:39:52;;;;;;;1.13;0.55;;;;;;;;;;4996879;28;20058;-72
2021/11/29 11:42:19;;;;;;;0.75;0.40;;;;;;;;;;5006821;28;20062;-73
2021/11/29 11:44:47;;;;;;;1.95;0.60;;;;;;;;;;5006555;28;20509;-74
2021/11/29 11:47:14;;;;;;;1.05;0.57;;;;;;;;;;5004785;28;20109;-73
2021/11/29 11:49:41;;;;;;;1.10;0.50;;;;;;;;;;5007060;28;20506;-75
2021/11/29 11:52:09;;;;;;;1.85;0.40;;;;;;;;;;5010532;28;20057;-73
2021/11/29 11:54:36;;;;;;;0.75;0.43;;;;;;;;;;4993736;28;20111;-74
2021/11/29 11:57:03;;;;;;;1.80;0.35;;;;;;;;;;5008928;28;20049;-74
2021/11/29 11:59:39;;;;;;;0.70;0.40;;;;;;;;;;5004091;28;20151;-74
2021/11/29 12:02:06;;;;;;;0.93;0.30;;;;;;;;;;5007823;28;20096;-74
2021/11/29 12:04:33;;;;;;;2.17;0.55;;;;;;;;;;5003949;28;20162;-74
2021/11/29 12:06:59;;;;;;;0.47;0.40;;;;;;;;;;5007473;28;20062;-74
2021/11/29 12:09:29;;;;;;;1.00;0.52;;;;;;;;;;5010576;28;20088;-74
2021/11/29 12:12:01;;;;;;;1.65;0.43;;;;;;;;;;5004437;28;20816;-74
2021/11/29 12:14:32;;;;;;;1.60;0.70;;;;;;;;;;5004915;28;20058;-73
2021/11/29 12:17:17;;;;;;;1.97;0.50;;;;;;;;;;5007551;28;20131;-74
2021/11/29 12:19:48;;;;;;;0.93;0.47;;;;;;;;;;4999761;28;20155;-73
2021/11/29 12:22:19;;;;;;;0.57;0.45;;;;;;;;;;5007152;28;20131;-73
2021/11/29 12:24:47;;;;;;;2.05;0.45;;;;;;;;;;5005619;28;20116;-74
2021/11/29 12:27:14;;;;;;;1.25;0.40;;;;;;;;;;5005102;28;20127;-73
2021/11/29 12:29:42;;;;;;;1.10;0.43;;;;;;;;;;5004796;28;20061;-74
2021/11/29 12:32:10;;;;;;;0.57;0.50;;;;;;;;;;5007298;28;20665;-74
2021/11/29 12:34:49;;;;;;;0.98;0.70;;;;;;;;;;5003616;28;20058;-74
2021/11/29 12:37:32;;;;;;;2.20;0.70;;;;;;;;;;5003212;28;20069;-73
2021/11/29 12:40:04;;;;;;;0.60;0.30;;;;;;;;;;5001761;28;20050;-74
2021/11/29 12:42:34;;;;;;;1.67;0.47;;;;;;;;;;5006102;28;20061;-73
2021/11/29 12:45:10;;;;;;;1.50;0.63;;;;;;;;;;5005192;28;20057;-73
2021/11/29 12:47:41;;;;;;;0.85;0.63;;;;;;;;;;5005414;28;20057;-73
2021/11/29 12:50:27;;;;;;;1.42;0.50;;;;;;;;;;5006543;28;20501;-75
2021/11/29 12:53:26;;;;;;;1.05;0.50;;;;;;;;;;5003742;28;20215;-75
2021/11/29 12:55:55;;;;;;;1.52;0.60;;;;;;;;;;4967119;28;20112;-75
2021/11/29 12:58:28;;;;;;;0.90;0.50;;;;;;;;;;5001490;28;20058;-75
2021/11/29 13:00:54;;;;;;;0.80;0.45;;;;;;;;;;5003733;28;20112;-74
2021/11/29 13:03:28;;;;;;;1.17;0.55;;;;;;;;;;5004848;28;20490;-76
2021/11/29 13:05:59;;;;;;;1.38;0.50;;;;;;;;;;5005418;28;20144;-74
2021/11/29 13:08:28;;;;;;;0.52;0.40;;;;;;;;;;5005590;28;20136;-73
2021/11/29 13:10:54;;;;;;;0.52;0.40;;;;;;;;;;5005997;28;20065;-75
2021/11/29 13:13:39;;;;;;;0.93;0.50;;;;;;;;;;4998858;28;20057;-80
2021/11/29 13:16:07;;;;;;;1.80;0.50;;;;;;;;;;5006800;28;20247;-76
2021/11/29 13:18:49;;;;;;;1.10;0.45;;;;;;;;;;5009976;28;20065;-73
2021/11/29 13:21:18;;;;;;;1.02;0.40;;;;;;;;;;4996092;28;20520;-74
2021/11/29 13:23:49;;;;;;;2.30;0.60;;;;;;;;;;5004335;28;20057;-73
2021/11/29 13:26:16;;;;;;;1.27;0.60;;;;;;;;;;5007107;28;20069;-74
2021/11/29 13:28:43;;;;;;;0.98;0.50;;;;;;;;;;5005583;28;20569;-75
2021/11/29 13:31:10;;;;;;;1.30;0.55;;;;;;;;;;5007237;28;20061;-75
2021/11/29 13:33:37;;;;;;;1.77;0.60;;;;;;;;;;5004992;28;20080;-73
2021/11/29 13:36:10;;;;;;;1.77;0.73;;;;;;;;;;5006760;28;20136;-74
2021/11/29 13:38:38;;;;;;;1.42;0.60;;;;;;;;;;4987414;28;20057;-72
2021/11/29 13:41:05;;;;;;;1.10;0.60;;;;;;;;;;5004912;28;20073;-73
2021/11/29 13:43:32;;;;;;;1.25;0.50;;;;;;;;;;5004597;28;20054;-73
2021/11/29 13:45:58;;;;;;;1.10;0.60;;;;;;;;;;5005281;28;20752;-74
2021/11/29 13:48:25;;;;;;;1.38;0.60;;;;;;;;;;5004256;28;20073;-74
2021/11/29 13:50:54;;;;;;;1.27;0.50;;;;;;;;;;4997686;28;20062;-75
2021/11/29 13:53:32;;;;;;;1.92;0.60;;;;;;;;;;5006864;28;20563;-74
2021/11/29 13:55:59;;;;;;;1.10;0.55;;;;;;;;;;5002711;28;20077;-75
2021/11/29 13:58:30;;;;;;;2.35;0.60;;;;;;;;;;5003153;28;20080;-75
2021/11/29 14:00:56;;;;;;;0.73;0.40;;;;;;;;;;5001794;28;20077;-74
2021/11/29 14:03:27;;;;;;;1.15;0.65;;;;;;;;;;5004591;28;20080;-76
2021/11/29 14:05:55;;;;;;;0.47;0.43;;;;;;;;;;5003371;28;20073;-74
2021/11/29 14:08:22;;;;;;;0.93;0.60;;;;;;;;;;5005761;28;20065;-74
2021/11/29 14:10:51;;;;;;;0.55;0.40;;;;;;;;;;5004257;28;20136;-74
2021/11/29 14:13:20;;;;;;;1.02;0.70;;;;;;;;;;5004854;28;20058;-74
2021/11/29 14:15:50;;;;;;;1.02;0.57;;;;;;;;;;4988126;28;20069;-73
2021/11/29 14:18:22;;;;;;;0.85;0.50;;;;;;;;;;5004593;28;20062;-73
2021/11/29 14:20:52;;;;;;;0.85;0.50;;;;;;;;;;4991857;28;20551;-74
2021/11/29 14:23:19;;;;;;;1.45;0.57;;;;;;;;;;5005025;28;20506;-74
2021/11/29 14:25:46;;;;;;;0.93;0.50;;;;;;;;;;5005759;28;20168;-74
2021/11/29 14:28:13;;;;;;;0.70;0.43;;;;;;;;;;5004112;28;20112;-74
2021/11/29 14:30:39;;;;;;;0.60;0.40;;;;;;;;;;5006269;28;20069;-74
2021/11/29 14:33:06;;;;;;;2.00;0.60;;;;;;;;;;5004288;28;20073;-74
2021/11/29 14:35:36;;;;;;;1.40;0.50;;;;;;;;;;5003012;28;20072;-74
2021/11/29 14:38:02;;;;;;;0.80;0.50;;;;;;;;;;5010035;28;20137;-74
2021/11/29 14:40:29;;;;;;;0.75;0.40;;;;;;;;;;5003771;28;20104;-74
2021/11/29 14:42:55;;;;;;;1.20;0.43;;;;;;;;;;5005059;28;20646;-74
2021/11/29 14:45:27;;;;;;;1.13;0.63;;;;;;;;;;5004641;28;20069;-74